Time;durP1;ratioP1;P1;durP2;ratioP2;P2;SDS_P1;SDS_P2;PMS_P1;PMS_P2;Temp;Humidity;BMP_temperature;BMP_pressure;BME280_temperature;BME280_humidity;BME280_pressure;Samples;Min_cycle;Max_cycle;Signal;HPM_P1;HPM_P2
2022/01/27 00:01:02;;;;;;;36.13;18.40;;;;;;;1.72;100.00;102185.34;691258;28;1583;-50
2022/01/27 00:01:51;;;;;;;38.92;19.17;;;;;;;1.60;100.00;102186.44;692606;28;1479;-53
2022/01/27 00:03:33;;;;;;;37.42;18.60;;;;;;;1.52;100.00;102182.53;695315;28;1405;-50
2022/01/27 00:04:15;;;;;;;39.05;19.35;;;;;;;1.46;100.00;102183.09;691798;28;2681;-50
2022/01/27 00:04:41;;;;;;;37.28;18.88;;;;;;;1.42;100.00;102185.41;694295;28;4572;-53
2022/01/27 00:05:16;;;;;;;36.53;18.67;;;;;;;1.41;100.00;102178.47;694643;28;1205;-53
2022/01/27 00:05:39;;;;;;;39.92;19.05;;;;;;;1.35;100.00;102177.31;695664;28;1016;-55
2022/01/27 00:06:09;;;;;;;40.42;19.20;;;;;;;1.35;100.00;102179.00;694222;28;1357;-51
2022/01/27 00:06:32;;;;;;;42.45;19.55;;;;;;;1.35;100.00;102187.63;692549;28;1190;-55
2022/01/27 00:06:52;;;;;;;39.38;20.13;;;;;;;1.39;100.00;102188.69;692555;28;1637;-51
2022/01/27 00:07:13;;;;;;;38.67;19.97;;;;;;;1.42;100.00;102175.09;692192;28;1596;-53
2022/01/27 00:07:33;;;;;;;41.67;20.07;;;;;;;1.45;100.00;102180.41;691668;28;5410;-54
2022/01/27 00:08:18;;;;;;;41.30;20.43;;;;;;;1.42;100.00;102180.25;692430;28;1722;-51
2022/01/27 00:09:12;;;;;;;41.42;20.48;;;;;;;1.60;100.00;102181.28;694777;28;1286;-53
2022/01/27 00:11:14;;;;;;;38.45;20.05;;;;;;;1.51;100.00;102178.22;693864;28;3550;-51
2022/01/27 00:11:34;;;;;;;40.47;20.58;;;;;;;1.60;100.00;102178.69;694109;28;1587;-53
2022/01/27 00:11:55;;;;;;;38.23;20.50;;;;;;;1.58;100.00;102180.31;694964;28;1406;-52
2022/01/27 00:12:18;;;;;;;38.17;20.38;;;;;;;1.60;100.00;102181.28;694249;28;1482;-53
2022/01/27 00:12:41;;;;;;;37.90;21.08;;;;;;;1.60;100.00;102182.97;694899;28;1370;-52
2022/01/27 00:13:02;;;;;;;36.85;21.70;;;;;;;1.60;100.00;102180.41;695314;28;1136;-54
2022/01/27 00:13:30;;;;;;;38.20;21.47;;;;;;;1.61;100.00;102183.06;694797;28;914;-51
2022/01/27 00:14:00;;;;;;;37.00;20.75;;;;;;;1.59;100.00;102184.66;695338;28;4725;-53
2022/01/27 00:14:22;;;;;;;37.85;20.75;;;;;;;1.58;100.00;102185.47;692108;28;1575;-54
2022/01/27 00:14:46;;;;;;;37.35;20.67;;;;;;;1.56;100.00;102188.75;691659;28;4010;-52
2022/01/27 00:15:12;;;;;;;39.80;21.20;;;;;;;1.56;100.00;102184.47;692115;28;1294;-55
2022/01/27 00:15:33;;;;;;;37.33;20.58;;;;;;;1.54;100.00;102178.38;689371;28;1572;-54
2022/01/27 00:16:10;;;;;;;38.05;21.25;;;;;;;1.50;100.00;102174.72;687214;28;2053;-53
2022/01/27 00:16:35;;;;;;;38.78;21.73;;;;;;;1.50;100.00;102177.28;688257;28;4444;-52
2022/01/27 00:16:58;;;;;;;37.50;21.75;;;;;;;1.48;100.00;102173.75;689931;28;899;-55
2022/01/27 00:17:27;;;;;;;37.20;21.42;;;;;;;1.48;100.00;102171.19;689682;28;1306;-53
2022/01/27 00:17:57;;;;;;;39.20;22.42;;;;;;;1.50;100.00;102182.44;693870;28;1544;-54
2022/01/27 00:18:17;;;;;;;39.08;21.55;;;;;;;1.47;100.00;102168.53;693747;28;4342;-52
2022/01/27 00:18:39;;;;;;;38.85;21.75;;;;;;;1.51;100.00;102170.47;693419;28;1710;-53
2022/01/27 00:18:59;;;;;;;38.08;21.55;;;;;;;1.53;100.00;102164.56;694323;28;2024;-51
2022/01/27 00:19:20;;;;;;;38.15;22.20;;;;;;;1.52;100.00;102167.97;695322;28;1327;-54
2022/01/27 00:19:43;;;;;;;37.28;22.17;;;;;;;1.58;100.00;102164.84;695039;28;4350;-53
2022/01/27 00:20:04;;;;;;;39.15;21.52;;;;;;;1.76;100.00;102156.34;695057;28;1606;-51
2022/01/27 00:20:25;;;;;;;39.80;22.30;;;;;;;1.76;100.00;102161.50;695175;28;1312;-56
2022/01/27 00:20:48;;;;;;;36.70;22.33;;;;;;;1.70;100.00;102154.31;695191;28;1167;-52
2022/01/27 00:21:09;;;;;;;37.13;21.50;;;;;;;1.67;100.00;102156.75;694832;28;1359;-52
2022/01/27 00:21:31;;;;;;;39.53;22.38;;;;;;;1.63;100.00;102160.81;695180;28;1901;-51
2022/01/27 00:21:51;;;;;;;40.33;22.67;;;;;;;1.62;100.00;102153.00;694218;28;1325;-50
2022/01/27 00:22:11;;;;;;;38.25;21.33;;;;;;;1.77;100.00;102158.13;694381;28;1158;-55
2022/01/27 00:22:32;;;;;;;39.60;21.43;;;;;;;1.76;100.00;102162.41;694405;28;4405;-53
2022/01/27 00:22:52;;;;;;;38.07;21.87;;;;;;;1.71;100.00;102161.25;694118;28;1187;-53
2022/01/27 00:23:14;;;;;;;36.30;21.77;;;;;;;1.66;100.00;102158.44;695068;28;1408;-51
2022/01/27 00:23:35;;;;;;;41.20;21.98;;;;;;;1.67;100.00;102157.63;695483;28;1365;-52
2022/01/27 00:23:57;;;;;;;39.75;21.15;;;;;;;1.92;100.00;102158.09;695290;28;2797;-53
2022/01/27 00:24:17;;;;;;;38.67;21.77;;;;;;;1.87;100.00;102161.31;691623;28;1357;-56
2022/01/27 00:24:37;;;;;;;37.83;21.47;;;;;;;1.91;100.00;102157.22;689899;28;1168;-51
2022/01/27 00:24:58;;;;;;;36.90;21.95;;;;;;;1.91;100.00;102164.94;686059;28;3498;-52
2022/01/27 00:25:19;;;;;;;37.70;21.87;;;;;;;1.80;100.00;102159.19;686861;28;3763;-52
2022/01/27 00:25:39;;;;;;;42.20;22.73;;;;;;;1.75;100.00;102159.75;686113;28;4472;-52
2022/01/27 00:26:00;;;;;;;41.53;22.70;;;;;;;1.69;100.00;102158.59;686899;28;1120;-53
2022/01/27 00:26:21;;;;;;;39.78;21.98;;;;;;;1.67;100.00;102160.19;689541;28;1034;-55
2022/01/27 00:26:42;;;;;;;37.53;22.13;;;;;;;1.62;100.00;102153.91;692794;28;1128;-55
2022/01/27 00:27:03;;;;;;;36.30;21.88;;;;;;;1.60;100.00;102158.06;694376;28;1301;-53
2022/01/27 00:27:24;;;;;;;39.53;23.00;;;;;;;1.58;100.00;102157.13;691819;28;1168;-53
2022/01/27 00:27:44;;;;;;;38.58;22.38;;;;;;;1.57;100.00;102160.50;690452;28;1188;-55
2022/01/27 00:28:05;;;;;;;37.33;21.90;;;;;;;1.55;100.00;102161.22;690786;28;1235;-52
2022/01/27 00:28:28;;;;;;;39.65;22.88;;;;;;;1.53;100.00;102161.13;688247;28;4427;-56
2022/01/27 00:28:49;;;;;;;37.80;21.95;;;;;;;1.53;100.00;102166.28;688448;28;3824;-53
2022/01/27 00:29:10;;;;;;;37.35;22.23;;;;;;;1.62;100.00;102158.16;688099;28;1812;-55
2022/01/27 00:29:30;;;;;;;35.97;22.13;;;;;;;1.62;100.00;102168.47;689585;28;1591;-53
2022/01/27 00:29:50;;;;;;;37.47;22.57;;;;;;;1.67;100.00;102164.47;689918;28;1174;-51
2022/01/27 00:30:11;;;;;;;37.60;22.88;;;;;;;1.60;100.00;102176.13;686816;28;1120;-56
2022/01/27 00:30:34;;;;;;;37.13;21.98;;;;;;;1.67;100.00;102167.94;689519;28;1159;-56
2022/01/27 00:30:55;;;;;;;38.17;22.15;;;;;;;1.64;100.00;102160.03;689747;28;1392;-53
2022/01/27 00:31:19;;;;;;;36.87;21.80;;;;;;;1.65;100.00;102161.81;689565;28;1386;-53
2022/01/27 00:31:39;;;;;;;35.47;21.00;;;;;;;1.70;100.00;102162.97;688926;28;5034;-52
2022/01/27 00:32:00;;;;;;;35.97;21.80;;;;;;;1.70;100.00;102167.22;690123;28;2000;-51
2022/01/27 00:32:20;;;;;;;37.80;21.77;;;;;;;1.73;100.00;102161.34;691927;28;3923;-52
2022/01/27 00:32:40;;;;;;;37.37;21.90;;;;;;;1.72;100.00;102164.72;692599;28;1381;-52
2022/01/27 00:33:03;;;;;;;35.97;22.23;;;;;;;1.76;100.00;102154.69;690959;28;1276;-52
2022/01/27 00:33:23;;;;;;;37.80;22.25;;;;;;;1.78;100.00;102165.94;689681;28;1278;-52
2022/01/27 00:33:46;;;;;;;38.25;21.83;;;;;;;1.87;100.00;102163.00;692489;28;1104;-59
2022/01/27 00:34:06;;;;;;;36.80;21.23;;;;;;;1.91;100.00;102161.47;691111;28;1116;-55
2022/01/27 00:34:26;;;;;;;35.80;21.60;;;;;;;1.94;100.00;102166.78;691784;28;4412;-54
2022/01/27 00:34:47;;;;;;;36.17;21.67;;;;;;;1.93;100.00;102170.19;695184;28;1187;-52
2022/01/27 00:35:08;;;;;;;37.67;22.15;;;;;;;1.93;100.00;102158.16;692076;28;1151;-53
2022/01/27 00:35:29;;;;;;;37.78;21.75;;;;;;;1.93;100.00;102165.91;692889;28;1853;-53
2022/01/27 00:35:50;;;;;;;37.88;22.48;;;;;;;1.91;100.00;102159.78;690022;28;3728;-52
2022/01/27 00:36:11;;;;;;;35.58;20.95;;;;;;;1.93;100.00;102167.63;689831;28;1396;-52
2022/01/27 00:36:33;;;;;;;37.58;21.92;;;;;;;1.90;100.00;102173.50;689423;28;1495;-55
2022/01/27 00:36:53;;;;;;;36.67;22.42;;;;;;;1.82;100.00;102170.47;687945;28;1386;-54
2022/01/27 00:37:13;;;;;;;37.07;21.43;;;;;;;1.81;100.00;102172.97;689168;28;1426;-52
2022/01/27 00:37:34;;;;;;;36.53;21.63;;;;;;;1.73;100.00;102169.06;689501;28;4388;-55
2022/01/27 00:37:54;;;;;;;35.10;20.93;;;;;;;1.72;100.00;102167.28;690648;28;2200;-56
2022/01/27 00:38:15;;;;;;;35.22;21.05;;;;;;;1.68;100.00;102163.69;690412;28;1910;-51
2022/01/27 00:38:35;;;;;;;35.00;21.27;;;;;;;1.67;100.00;102178.25;689818;28;1505;-53
2022/01/27 00:38:56;;;;;;;35.42;21.25;;;;;;;1.65;100.00;102164.38;691297;28;3277;-52
2022/01/27 00:39:16;;;;;;;36.47;21.23;;;;;;;1.58;100.00;102159.69;690805;28;3467;-52
2022/01/27 00:39:36;;;;;;;35.63;20.92;;;;;;;1.58;100.00;102171.69;690381;28;1449;-55
2022/01/27 00:39:57;;;;;;;36.30;21.57;;;;;;;1.57;100.00;102170.81;692142;28;1235;-53
2022/01/27 00:40:17;;;;;;;36.78;21.02;;;;;;;1.61;100.00;102161.56;691830;28;1136;-52
2022/01/27 00:40:38;;;;;;;37.87;21.30;;;;;;;1.58;100.00;102164.84;693854;28;4545;-55
2022/01/27 00:40:59;;;;;;;39.08;21.52;;;;;;;1.66;100.00;102162.69;695181;28;1076;-57
2022/01/27 00:41:20;;;;;;;35.55;21.25;;;;;;;1.64;100.00;102162.59;695080;28;1211;-53
2022/01/27 00:41:40;;;;;;;34.20;20.67;;;;;;;1.75;100.00;102155.47;694782;28;1179;-53
2022/01/27 00:42:01;;;;;;;36.33;21.05;;;;;;;1.67;100.00;102156.75;694813;28;3618;-53
2022/01/27 00:42:22;;;;;;;36.87;20.87;;;;;;;1.65;100.00;102159.22;695091;28;1206;-53
2022/01/27 00:42:44;;;;;;;36.28;20.83;;;;;;;1.69;100.00;102163.75;694748;28;3629;-53
2022/01/27 00:43:05;;;;;;;36.10;20.65;;;;;;;1.65;100.00;102161.81;694030;28;1576;-55
2022/01/27 00:43:25;;;;;;;34.45;20.30;;;;;;;1.66;100.00;102158.44;692080;28;4593;-54
2022/01/27 00:43:47;;;;;;;37.17;21.20;;;;;;;1.62;100.00;102155.59;691579;28;1832;-57
2022/01/27 00:44:08;;;;;;;35.28;20.95;;;;;;;1.59;100.00;102161.44;691808;28;1208;-56
2022/01/27 00:44:28;;;;;;;36.97;20.63;;;;;;;1.65;100.00;102158.34;692178;28;1222;-55
2022/01/27 00:44:49;;;;;;;37.53;20.33;;;;;;;1.66;100.00;102155.88;689471;28;1052;-53
2022/01/27 00:45:09;;;;;;;34.33;20.02;;;;;;;1.64;100.00;102159.16;689822;28;1180;-54
2022/01/27 00:45:32;;;;;;;36.35;20.55;;;;;;;1.72;100.00;102159.56;690266;28;3411;-53
2022/01/27 00:45:52;;;;;;;35.97;20.45;;;;;;;1.74;100.00;102153.69;691117;28;1231;-52
2022/01/27 00:46:16;;;;;;;35.07;20.47;;;;;;;1.70;100.00;102160.38;691456;28;1210;-53
2022/01/27 00:46:37;;;;;;;37.00;21.17;;;;;;;1.62;100.00;102161.66;691922;28;4285;-55
2022/01/27 00:46:57;;;;;;;39.80;20.80;;;;;;;1.60;100.00;102163.22;694879;28;1186;-55
2022/01/27 00:47:17;;;;;;;36.35;20.10;;;;;;;1.61;100.00;102159.88;695610;28;1270;-56
2022/01/27 00:47:38;;;;;;;36.13;20.63;;;;;;;1.69;100.00;102158.59;694911;28;1152;-53
2022/01/27 00:48:03;;;;;;;35.50;20.33;;;;;;;1.67;100.00;102160.19;694630;28;1012;-55
2022/01/27 00:48:23;;;;;;;37.78;21.48;;;;;;;1.66;100.00;102160.09;695359;28;1273;-55
2022/01/27 00:48:45;;;;;;;38.13;21.33;;;;;;;1.70;100.00;102152.66;692127;28;1946;-55
2022/01/27 00:49:06;;;;;;;38.65;21.27;;;;;;;1.81;100.00;102162.66;688269;28;3611;-55
2022/01/27 00:49:26;;;;;;;37.00;20.77;;;;;;;1.76;100.00;102158.94;687548;28;4330;-53
2022/01/27 00:49:46;;;;;;;36.47;20.27;;;;;;;1.81;100.00;102158.38;689021;28;1804;-56
2022/01/27 00:50:07;;;;;;;36.33;20.77;;;;;;;1.77;100.00;102158.13;688954;28;1271;-52
2022/01/27 00:50:28;;;;;;;36.42;21.15;;;;;;;1.70;100.00;102157.81;690279;28;1152;-55
2022/01/27 00:50:55;;;;;;;37.05;21.63;;;;;;;1.70;100.00;102152.66;689732;28;1180;-52
2022/01/27 00:51:21;;;;;;;38.03;21.80;;;;;;;1.69;100.00;102153.44;688998;28;1192;-53
2022/01/27 00:51:45;;;;;;;38.20;21.00;;;;;;;1.61;100.00;102157.28;688542;28;3351;-56
2022/01/27 00:52:10;;;;;;;36.25;21.15;;;;;;;1.59;100.00;102158.00;688553;28;1397;-53
2022/01/27 00:52:41;;;;;;;40.35;21.50;;;;;;;1.58;100.00;102157.13;688147;28;4293;-52
2022/01/27 00:53:05;;;;;;;38.75;21.45;;;;;;;1.64;100.00;102157.44;691005;28;1231;-54
2022/01/27 00:53:35;;;;;;;38.92;21.20;;;;;;;1.62;100.00;102147.84;693441;28;1427;-52
2022/01/27 00:54:21;;;;;;;36.60;20.48;;;;;;;1.65;100.00;102153.19;695279;28;1285;-53
2022/01/27 00:54:36;;;;;;;35.53;20.08;;;;;;;1.58;100.00;102149.38;693702;28;3357;-55
2022/01/27 00:54:57;;;;;;;35.97;20.02;;;;;;;1.56;100.00;102144.94;694445;28;1342;-56
2022/01/27 00:55:18;;;;;;;35.83;19.87;;;;;;;1.57;100.00;102139.88;693577;28;1310;-50
2022/01/27 00:55:41;;;;;;;36.67;20.02;;;;;;;1.62;100.00;102143.59;693075;28;4464;-56
2022/01/27 00:56:16;;;;;;;37.85;20.38;;;;;;;1.63;100.00;102145.34;694523;28;1225;-53
2022/01/27 00:57:31;;;;;;;37.35;20.95;;;;;;;1.57;100.00;102152.75;694438;28;1417;-52
2022/01/27 00:59:51;;;;;;;35.60;20.15;;;;;;;1.40;100.00;102143.19;695027;28;1122;-52
2022/01/27 01:00:13;;;;;;;36.38;20.40;;;;;;;1.38;100.00;102144.81;694479;28;1389;-56
2022/01/27 01:00:42;;;;;;;37.25;21.05;;;;;;;1.38;100.00;102144.81;692215;28;1263;-56
2022/01/27 01:01:04;;;;;;;36.55;21.33;;;;;;;1.36;100.00;102139.56;691508;28;1200;-55
2022/01/27 01:01:29;;;;;;;36.67;21.48;;;;;;;1.38;100.00;102147.38;691783;28;3193;-56
2022/01/27 01:02:17;;;;;;;38.35;21.10;;;;;;;1.35;100.00;102141.22;691347;28;5705;-52
2022/01/27 01:03:09;;;;;;;36.83;20.23;;;;;;;1.46;100.00;102135.81;691063;28;1309;-56
2022/01/27 01:03:37;;;;;;;37.05;19.95;;;;;;;1.41;100.00;102132.97;691909;28;1120;-56
2022/01/27 01:04:01;;;;;;;38.33;20.90;;;;;;;1.45;100.00;102123.72;694481;28;927;-55
2022/01/27 01:04:27;;;;;;;38.00;20.20;;;;;;;1.50;100.00;102122.31;694490;28;967;-51
2022/01/27 01:04:59;;;;;;;37.08;20.52;;;;;;;1.50;100.00;102112.88;693967;28;6175;-55
2022/01/27 01:06:48;;;;;;;37.30;21.83;;;;;;;1.51;100.00;102119.81;693975;28;890;-51
2022/01/27 01:07:10;;;;;;;38.13;20.63;;;;;;;1.49;100.00;102115.34;692257;28;1121;-56
2022/01/27 01:07:35;;;;;;;38.60;21.42;;;;;;;1.47;100.00;102119.56;690241;28;4582;-53
2022/01/27 01:08:03;;;;;;;35.53;20.77;;;;;;;1.42;100.00;102116.69;691068;28;986;-60
2022/01/27 01:10:07;;;;;;;40.08;21.10;;;;;;;1.64;100.00;102108.47;691658;28;1295;-53
2022/01/27 01:14:46;;;;;;;38.35;20.90;;;;;;;1.52;100.00;102097.47;688866;28;1168;-55
2022/01/27 01:15:20;;;;;;;38.75;21.35;;;;;;;1.47;100.00;102098.94;692494;28;1082;-51
2022/01/27 01:15:42;;;;;;;36.78;21.13;;;;;;;1.41;100.00;102096.00;694871;28;3575;-53
2022/01/27 01:16:04;;;;;;;40.20;21.55;;;;;;;1.49;100.00;102105.06;693405;28;1022;-52
2022/01/27 01:17:48;;;;;;;39.74;22.08;;;;;;;1.38;100.00;102099.28;678946;29;1337;-52
2022/01/27 01:18:30;;;;;;;39.00;21.08;;;;;;;1.40;100.00;102101.94;686470;28;1372;-54
2022/01/27 01:32:54;;;;;;;40.30;21.55;;;;;;;1.39;100.00;102072.72;685732;28;833;-53
2022/01/27 01:33:22;;;;;;;40.03;22.05;;;;;;;1.32;100.00;102071.50;684204;28;3421;-52
2022/01/27 01:33:45;;;;;;;41.08;21.17;;;;;;;1.31;100.00;102071.41;683903;28;3987;-52
2022/01/27 01:34:15;;;;;;;44.05;22.48;;;;;;;1.28;100.00;102074.69;685109;28;1154;-54
2022/01/27 01:34:42;;;;;;;41.97;21.42;;;;;;;1.31;100.00;102080.03;684894;28;4651;-51
2022/01/27 01:35:06;;;;;;;40.05;21.20;;;;;;;1.42;100.00;102077.16;693233;28;1226;-55
2022/01/27 01:35:29;;;;;;;39.58;20.60;;;;;;;1.48;100.00;102078.41;694279;28;1170;-52
2022/01/27 01:35:51;;;;;;;41.50;21.42;;;;;;;1.42;100.00;102072.88;694491;28;999;-52
2022/01/27 01:36:15;;;;;;;41.92;22.33;;;;;;;1.38;100.00;102072.66;694837;28;1077;-51
2022/01/27 01:36:38;;;;;;;41.38;21.42;;;;;;;1.33;100.00;102069.78;694920;28;911;-52
2022/01/27 01:37:05;;;;;;;39.30;21.63;;;;;;;1.30;100.00;102069.63;690998;28;2012;-52
2022/01/27 01:37:25;;;;;;;41.22;21.38;;;;;;;1.46;100.00;102068.81;688037;28;4528;-52
2022/01/27 01:37:46;;;;;;;41.63;21.07;;;;;;;1.40;100.00;102068.44;689789;28;1309;-53
2022/01/27 01:38:06;;;;;;;43.30;21.85;;;;;;;1.38;100.00;102062.34;689789;28;1564;-55
2022/01/27 01:38:29;;;;;;;40.72;20.92;;;;;;;1.45;100.00;102067.91;689898;28;1981;-54
2022/01/27 01:38:50;;;;;;;40.45;21.25;;;;;;;1.47;100.00;102071.47;693068;28;1218;-53
2022/01/27 01:39:12;;;;;;;41.10;21.50;;;;;;;1.44;100.00;102067.81;691236;28;1120;-52
2022/01/27 01:39:34;;;;;;;42.00;21.45;;;;;;;1.56;100.00;102065.91;691996;28;1227;-51
2022/01/27 01:39:55;;;;;;;42.83;21.50;;;;;;;1.55;100.00;102074.44;688231;28;1563;-56
2022/01/27 01:40:17;;;;;;;42.10;21.30;;;;;;;1.46;100.00;102071.38;689345;28;1176;-55
2022/01/27 01:40:37;;;;;;;42.58;21.95;;;;;;;1.41;100.00;102075.38;685708;28;4578;-54
2022/01/27 01:40:58;;;;;;;41.37;21.80;;;;;;;1.38;100.00;102075.22;686612;28;3762;-53
2022/01/27 01:41:18;;;;;;;42.10;21.60;;;;;;;1.35;100.00;102071.66;687870;28;1469;-53
2022/01/27 01:41:39;;;;;;;43.43;22.10;;;;;;;1.33;100.00;102073.28;689470;28;1476;-53
2022/01/27 01:42:06;;;;;;;43.03;21.88;;;;;;;1.41;100.00;102077.97;689706;28;1336;-53
2022/01/27 01:42:26;;;;;;;42.63;21.92;;;;;;;1.38;100.00;102076.09;692367;28;1065;-53
2022/01/27 01:42:49;;;;;;;41.97;21.47;;;;;;;1.38;100.00;102077.81;693129;28;3953;-54
2022/01/27 01:43:09;;;;;;;42.30;21.25;;;;;;;1.33;100.00;102077.53;693138;28;1013;-53
2022/01/27 01:43:31;;;;;;;42.80;21.73;;;;;;;1.28;100.00;102078.97;690208;28;4553;-53
2022/01/27 01:43:51;;;;;;;41.78;21.70;;;;;;;1.30;100.00;102074.78;690267;28;1006;-55
2022/01/27 01:44:12;;;;;;;42.83;21.73;;;;;;;1.39;100.00;102077.00;689723;28;3206;-51
2022/01/27 01:44:33;;;;;;;42.38;20.70;;;;;;;1.44;100.00;102075.56;690567;28;2265;-57
2022/01/27 01:44:54;;;;;;;40.95;20.70;;;;;;;1.44;100.00;102078.13;691207;28;1579;-52
2022/01/27 01:45:17;;;;;;;41.47;21.57;;;;;;;1.36;100.00;102072.56;690922;28;1254;-52
2022/01/27 01:45:37;;;;;;;42.53;21.55;;;;;;;1.42;100.00;102074.59;693218;28;1174;-55
2022/01/27 01:45:58;;;;;;;42.00;21.10;;;;;;;1.41;100.00;102070.22;691767;28;1205;-54
2022/01/27 01:46:18;;;;;;;41.72;20.88;;;;;;;1.36;100.00;102078.59;689657;28;837;-53
2022/01/27 01:46:39;;;;;;;41.13;20.70;;;;;;;1.30;100.00;102080.84;689045;28;4287;-54
2022/01/27 01:47:00;;;;;;;42.28;20.65;;;;;;;1.29;100.00;102075.63;689312;28;1189;-52
2022/01/27 01:47:20;;;;;;;44.53;21.50;;;;;;;1.42;100.00;102074.59;688966;28;780;-53
2022/01/27 01:47:41;;;;;;;41.40;20.50;;;;;;;1.47;100.00;102075.75;689376;28;729;-53
2022/01/27 01:48:01;;;;;;;39.73;20.67;;;;;;;1.48;100.00;102083.56;691357;28;2099;-51
2022/01/27 01:48:23;;;;;;;42.25;21.20;;;;;;;1.39;100.00;102083.03;692963;28;1347;-52
2022/01/27 01:48:43;;;;;;;42.42;21.60;;;;;;;1.35;100.00;102081.97;693669;28;1067;-52
2022/01/27 01:49:05;;;;;;;41.70;21.70;;;;;;;1.38;100.00;102076.09;694318;28;1568;-51
2022/01/27 01:49:26;;;;;;;42.10;20.65;;;;;;;1.32;100.00;102076.66;691798;28;4550;-54
2022/01/27 01:49:47;;;;;;;42.90;21.13;;;;;;;1.30;100.00;102078.28;691875;28;1010;-53
2022/01/27 01:50:09;;;;;;;41.53;21.33;;;;;;;1.25;100.00;102077.13;688522;28;1064;-53
2022/01/27 01:50:29;;;;;;;42.92;21.60;;;;;;;1.28;100.00;102081.56;689435;28;1271;-53
2022/01/27 01:50:49;;;;;;;42.00;21.17;;;;;;;1.27;100.00;102075.50;687856;28;781;-52
2022/01/27 01:51:11;;;;;;;44.00;21.13;;;;;;;1.28;100.00;102079.84;688738;28;1023;-52
2022/01/27 01:51:35;;;;;;;41.30;20.65;;;;;;;1.27;100.00;102072.91;688041;28;3386;-56
2022/01/27 01:51:57;;;;;;;42.42;21.25;;;;;;;1.24;100.00;102077.03;690623;28;1337;-52
2022/01/27 01:52:18;;;;;;;43.00;21.73;;;;;;;1.19;100.00;102075.09;693120;28;1563;-53
2022/01/27 01:52:39;;;;;;;44.00;21.10;;;;;;;1.25;100.00;102082.28;693434;28;4268;-52
2022/01/27 01:53:02;;;;;;;46.92;22.00;;;;;;;1.30;100.00;102070.53;694445;28;1420;-52
2022/01/27 01:53:22;;;;;;;40.00;20.63;;;;;;;1.27;100.00;102072.91;695230;28;923;-53
2022/01/27 01:53:42;;;;;;;41.53;20.53;;;;;;;1.36;100.00;102073.44;692344;28;936;-51
2022/01/27 01:54:05;;;;;;;42.53;20.65;;;;;;;1.42;100.00;102075.47;691986;28;924;-51
2022/01/27 01:54:25;;;;;;;42.33;20.08;;;;;;;1.52;100.00;102077.78;691469;28;955;-52
2022/01/27 01:54:46;;;;;;;41.40;19.95;;;;;;;1.55;100.00;102073.56;692138;28;900;-55
2022/01/27 01:55:09;;;;;;;40.17;20.55;;;;;;;1.52;100.00;102069.13;691573;28;3257;-54
2022/01/27 01:55:31;;;;;;;43.13;20.88;;;;;;;1.58;100.00;102069.47;691320;28;4365;-53
2022/01/27 01:55:52;;;;;;;42.90;20.46;;;;;;;1.66;100.00;102065.63;692764;28;1074;-55
2022/01/27 01:56:12;;;;;;;43.10;21.57;;;;;;;1.60;100.00;102070.44;694022;28;1556;-55
2022/01/27 01:56:35;;;;;;;43.88;21.55;;;;;;;1.54;100.00;102054.66;693490;28;1222;-53
2022/01/27 01:56:55;;;;;;;43.28;21.60;;;;;;;1.49;100.00;102064.69;693795;28;882;-52
2022/01/27 01:57:15;;;;;;;43.97;21.65;;;;;;;1.43;100.00;102059.22;694742;28;1272;-53
2022/01/27 01:57:36;;;;;;;42.03;20.63;;;;;;;1.48;100.00;102067.19;691526;28;1498;-52
2022/01/27 01:57:57;;;;;;;41.65;20.67;;;;;;;1.42;100.00;102067.75;692035;28;836;-53
2022/01/27 01:58:18;;;;;;;44.82;21.78;;;;;;;1.39;100.00;102064.13;690613;28;1910;-53
2022/01/27 01:58:38;;;;;;;41.57;21.57;;;;;;;1.35;100.00;102060.47;691270;28;4359;-54
2022/01/27 01:59:05;;;;;;;41.00;21.25;;;;;;;1.32;100.00;102068.91;691158;28;3583;-53
2022/01/27 01:59:26;;;;;;;40.35;21.50;;;;;;;1.39;100.00;102065.00;692912;28;1364;-54
2022/01/27 01:59:46;;;;;;;44.67;21.67;;;;;;;1.35;100.00;102066.50;693983;28;1444;-54
2022/01/27 02:00:09;;;;;;;41.92;20.65;;;;;;;1.42;100.00;102062.59;693624;28;1317;-54
2022/01/27 02:00:32;;;;;;;45.28;21.65;;;;;;;1.38;100.00;102070.94;694690;28;1189;-51
2022/01/27 02:00:52;;;;;;;41.37;20.83;;;;;;;1.36;100.00;102070.88;690983;28;997;-52
2022/01/27 02:01:13;;;;;;;40.33;20.90;;;;;;;1.35;100.00;102071.66;691410;28;1343;-56
2022/01/27 02:01:35;;;;;;;41.25;20.77;;;;;;;1.35;100.00;102070.78;691128;28;4851;-52
2022/01/27 02:01:57;;;;;;;42.97;21.25;;;;;;;1.34;100.00;102069.91;692215;28;1055;-55
2022/01/27 02:02:18;;;;;;;42.90;20.88;;;;;;;1.30;100.00;102062.81;692196;28;927;-52
2022/01/27 02:02:41;;;;;;;40.72;20.70;;;;;;;1.28;100.00;102066.09;691401;28;3473;-51
2022/01/27 02:03:02;;;;;;;43.10;21.48;;;;;;;1.24;100.00;102067.59;690234;28;1278;-53
2022/01/27 02:03:22;;;;;;;43.13;20.70;;;;;;;1.23;100.00;102070.09;690981;28;987;-53
2022/01/27 02:03:44;;;;;;;41.05;20.42;;;;;;;1.23;100.00;102070.09;691544;28;1470;-56
2022/01/27 02:04:09;;;;;;;44.03;20.67;;;;;;;1.30;100.00;102070.53;691621;28;1326;-51
2022/01/27 02:04:30;;;;;;;42.72;20.30;;;;;;;1.45;100.00;102070.47;691242;28;4581;-53
2022/01/27 02:04:50;;;;;;;41.72;20.85;;;;;;;1.51;100.00;102075.13;692157;28;1135;-52
2022/01/27 02:05:11;;;;;;;42.33;20.80;;;;;;;1.46;100.00;102073.97;694540;28;955;-50
2022/01/27 02:05:38;;;;;;;43.13;20.38;;;;;;;1.42;100.00;102077.16;695223;28;892;-53
2022/01/27 02:05:59;;;;;;;41.63;20.55;;;;;;;1.56;100.00;102076.22;694367;28;3247;-52
2022/01/27 02:06:30;;;;;;;42.03;20.85;;;;;;;1.54;100.00;102072.69;694174;28;3668;-51
2022/01/27 02:06:57;;;;;;;42.83;21.02;;;;;;;1.42;100.00;102074.59;693718;28;1404;-54
2022/01/27 02:08:13;;;;;;;45.15;21.85;;;;;;;1.31;100.00;102068.84;694529;28;924;-51
2022/01/27 02:09:10;;;;;;;43.03;22.23;;;;;;;1.43;100.00;102069.53;694999;28;1361;-52
2022/01/27 02:18:07;;;;;;;45.83;22.60;;;;;;;1.11;100.00;102067.72;676819;29;1612;-52
2022/01/27 02:18:28;;;;;;;41.88;21.48;;;;;;;1.21;100.00;102071.72;677790;29;1970;-52
2022/01/27 02:18:48;;;;;;;44.15;21.77;;;;;;;1.19;100.00;102061.31;689021;28;1545;-56
2022/01/27 02:19:09;;;;;;;42.80;20.87;;;;;;;1.24;100.00;102061.56;691139;28;1480;-53
2022/01/27 02:19:30;;;;;;;43.30;21.73;;;;;;;1.22;100.00;102066.66;691775;28;4333;-53
2022/01/27 02:19:52;;;;;;;45.33;21.90;;;;;;;1.19;100.00;102053.56;692219;28;785;-51
2022/01/27 02:20:13;;;;;;;44.58;21.45;;;;;;;1.25;100.00;102059.09;692170;28;1098;-54
2022/01/27 02:20:37;;;;;;;40.47;20.48;;;;;;;1.31;100.00;102059.41;692114;28;2104;-52
2022/01/27 02:20:57;;;;;;;41.38;21.17;;;;;;;1.50;100.00;102055.28;691383;28;4312;-54
2022/01/27 02:21:18;;;;;;;41.20;21.10;;;;;;;1.47;100.00;102055.13;691771;28;1885;-55
2022/01/27 02:21:58;;;;;;;44.00;21.20;;;;;;;1.32;100.00;102045.72;691053;28;1487;-51
2022/01/27 02:22:20;;;;;;;43.50;21.17;;;;;;;1.30;100.00;102051.59;691003;28;1577;-55
2022/01/27 02:22:40;;;;;;;46.17;21.85;;;;;;;1.26;100.00;102050.56;690458;28;4388;-51
2022/01/27 02:23:07;;;;;;;45.47;21.83;;;;;;;1.22;100.00;102053.78;690471;28;1450;-54
2022/01/27 02:23:27;;;;;;;47.35;22.17;;;;;;;1.19;100.00;102048.41;691173;28;825;-54
2022/01/27 02:23:48;;;;;;;45.55;22.20;;;;;;;1.18;100.00;102056.97;691500;28;1370;-54
2022/01/27 02:24:08;;;;;;;43.27;22.37;;;;;;;1.14;100.00;102058.47;691007;28;3378;-55
2022/01/27 02:24:32;;;;;;;44.00;22.37;;;;;;;1.12;100.00;102054.03;692138;28;1256;-51
2022/01/27 02:24:53;;;;;;;46.03;21.52;;;;;;;1.10;100.00;102053.94;690990;28;3889;-52
2022/01/27 02:25:13;;;;;;;47.08;21.23;;;;;;;1.06;100.00;102052.00;691523;28;1132;-51
2022/01/27 02:25:35;;;;;;;44.47;20.33;;;;;;;1.38;100.00;102054.63;691665;28;4391;-53
2022/01/27 02:25:55;;;;;;;44.17;21.08;;;;;;;1.39;100.00;102053.81;689698;28;1434;-51
2022/01/27 02:26:15;;;;;;;43.85;21.67;;;;;;;1.34;100.00;102059.59;690761;28;1247;-53
2022/01/27 02:26:36;;;;;;;45.17;21.87;;;;;;;1.28;100.00;102054.09;693635;28;863;-52